West Farmington, Ohio
Current Conditions -  °F | °C
As of 8:51 AM on Friday 19 Dec 2014 (Local Time) from KYNG Reporting Station
Light Snow Light Snow  
Wind Chill: 20°   Ceiling: 700
Heat Index: 28°   Visibility: 9mi
Dew Point: 26°   Wind: 8mph
Humidity: 92%   Direction: 290°WNW
Pressure: 30.2"   Gusts: NA
Location:  41.39°N, 80.97°W
Report Text: KYNG 191351Z 29007KT 9SM -SN BKN007 OVC016 M02/M03 A3020 RMK AO2 SLP240 P0000 T10221033
Loading
Personal Weather Stations






























Interactive Weather Map New forecast layout! Learn more

10-Day Weather Forecast

Advertisements
Track Severe Weather on mobile